• Join FlightAware (Why Join?)
  • Login
  • US Flag 
08:23AM EDT


 

Airport Tracker/Info


-or-


 

Live Flight TrackerFlight Track Log ✈ N885WT ✈ 09-Jul-2013 ✈ KSJC - KCRQ

Flight Track Log - Related Links

Times and Time Zones

All times are in EDT time to prevent confusion due to time zone crossing. See the N885WT flight status page for this flight to view local times or setup timezone preferences in your user account.

Time Position Orientation Groundspeed Altitude Reporting Facility
EDT Latitude Longitude Course Direction KTS MPH feet Rate Location/Type
03:41PM 37.3853 -121.9556 141° Southeast 165 190 2,500  Level Oakland Center
03:42PM 37.4339 -121.9722 345° North 213 245 5,000 1,200 Climbing Oakland Center
03:43PM 37.4244 -121.9153 102° East 186 214 5,000 540 Level Oakland Center
03:44PM 37.3872 -121.8567 129° Southeast 208 239 6,200 2,640 Climbing Oakland Center
03:45PM 37.3333 -121.7922 136° Southeast 267 307 10,500 3,480 Climbing Oakland Center
03:46PM 36.9014 -121.3880 141° Southeast  Level Estimated
03:46PM 37.2650 -121.7144 138° Southeast 327 376 13,300  Level Oakland Center
03:47PM 37.1736 -121.6094 138° Southeast 369 425 17,300 3,420 Climbing Oakland Center
03:48PM 37.0906 -121.5192 139° Southeast 388 447 20,400 2,820 Climbing Oakland Center
03:49PM 37.0025 -121.4217 139° Southeast 408 470 23,100 1,800 Climbing Oakland Center
03:50PM 36.9128 -121.3244 139° Southeast 424 488 24,200 1,500 Climbing Oakland Center
03:51PM 36.8217 -121.2247 139° Southeast 433 498 26,200 2,340 Climbing Oakland Center
03:52PM 36.7314 -121.1239 138° Southeast 445 512 29,000 2,400 Climbing Oakland Center
03:53PM 36.6339 -121.0183 139° Southeast 458 527 31,100 2,580 Climbing Oakland Center
03:54PM 36.5367 -120.9133 139° Southeast 462 532 34,400 2,940 Climbing Oakland Center
03:55PM 36.4208 -120.7903 139° Southeast 458 527 37,200 2,400 Climbing Oakland Center
03:56PM 36.3239 -120.6883 140° Southeast 456 525 39,400 1,800 Climbing Oakland Center
03:57PM 36.2283 -120.5858 139° Southeast 453 521 41,000 780 Climbing Oakland Center
03:58PM 36.1306 -120.4831 140° Southeast 458 527 41,000  Level Oakland Center
03:59PM 36.0300 -120.3778 140° Southeast 468 539 41,000  Level Oakland Center
04:00PM 35.9325 -120.2742 139° Southeast 462 532 41,000  Level Oakland Center
04:01PM 35.8328 -120.1708 140° Southeast 464 534 41,000  Level Oakland Center
04:02PM 35.7347 -120.0675 139° Southeast 459 528 41,000  Level Oakland Center
04:03PM 35.6342 -119.9650 140° Southeast 463 533 41,000  Level Oakland Center
04:04PM 35.5283 -119.8739 145° Southeast 462 532 41,000  Level Los Angeles Center
04:05PM 35.4003 -119.7639 145° Southeast 464 534 41,000  Level Los Angeles Center
04:06PM 35.2950 -119.6728 145° Southeast 463 533 41,000 -60 Level Los Angeles Center
04:07PM 35.1881 -119.5825 145° Southeast 464 534 40,900 -780 Descending Los Angeles Center
04:08PM 35.0825 -119.4919 145° Southeast 463 533 39,400 -1,500 Descending Los Angeles Center
04:09PM 34.9744 -119.4000 145° Southeast 470 541 37,900 -1,500 Descending Los Angeles Center
04:10PM 34.8664 -119.3100 146° Southeast 471 542 36,400 -1,500 Descending Los Angeles Center
04:11PM 34.7606 -119.2189 145° Southeast 467 537 34,800 -1,680 Descending Los Angeles Center
04:12PM 34.6386 -119.1172 146° Southeast 476 548 33,000 -1,560 Descending Los Angeles Center
04:14PM 34.5281 -119.0264 146° Southeast 481 554 31,400 -1,560 Descending Los Angeles Center
04:15PM 34.4025 -118.9200 145° Southeast 459 528 29,500 -1,800 Descending Los Angeles Center
04:16PM 34.2836 -118.8064 142° Southeast 455 524 27,700 -1,620 Descending Los Angeles Center
04:17PM 34.1919 -118.7075 138° Southeast 444 511 26,200 -1,440 Descending Los Angeles Center
04:18PM 34.1017 -118.6117 139° Southeast 435 501 24,700 -1,080 Descending Los Angeles Center
04:19PM 34.0122 -118.5172 139° Southeast 429 494 24,000 -1,200 Descending Los Angeles Center
04:20PM 33.9111 -118.4561 153° Southeast 419 482 22,300 -1,920 Descending Los Angeles Center
04:21PM 33.7811 -118.4858 191° South 402 463 20,100 -1,260 Descending Los Angeles Center
04:22PM 33.6761 -118.5219 196° South 401 461 19,800 -1,200 Descending Los Angeles Center
04:23PM 33.5725 -118.5503 193° South 383 441 17,700 -1,740 Descending Los Angeles Center
04:24PM 33.4772 -118.5075 159° South 375 432 16,300 -1,800 Descending Los Angeles Center
04:25PM 33.3833 -118.4103 139° Southeast 380 437 14,000 -1,980 Descending Los Angeles Center
04:26PM 33.3589 -118.3031 105° East 373 429 12,300 -1,500 Descending Los Angeles Center
04:27PM 33.3436 -118.1789 98° East 353 406 11,000 -1,320 Descending Los Angeles Center
04:28PM 33.3303 -118.0808 99° East 311 358 9,600 -1,440 Descending Los Angeles Center
04:29PM 33.3175 -117.9839 99° East 299 344 8,100 -1,440 Descending Los Angeles Center
04:30PM 33.3044 -117.8878 99° East 296 341 6,700 -1,440 Descending Los Angeles Center
04:31PM 33.2900 -117.7764 99° East 287 330 5,200 -840 Descending Los Angeles Center
04:32PM 33.2772 -117.6856 100° East 281 323 5,000 -120 Descending Los Angeles Center
04:33PM 33.2667 -117.6000 98° East 281 323 5,000  Level Southern California TRACON
04:34PM 33.2667 -117.5167 90° East 279 321 5,000  Level Southern California TRACON
04:35PM 33.2500 -117.4167 101° East 277 319 5,000  Level Southern California TRACON
04:36PM 33.2500 -117.3333 90° East 258 297 5,000  Level Southern California TRACON
04:37PM 33.2500 -117.2500 90° East 243 280 5,000  Level Southern California TRACON
04:38PM 33.2500 -117.1833 90° East 244 281 5,000 -240 Level Southern California TRACON
04:39PM 33.2333 -117.1000 103° East 235 270 4,600 -540 Descending Southern California TRACON
04:40PM 33.1833 -117.0667 151° Southeast 229 264 4,000 -600 Descending Southern California TRACON
04:41PM 33.1500 -117.1167 231° Southwest 195 224 3,500 -840 Descending Southern California TRACON
04:42PM 33.1500 -117.1667 270° West 166 191 2,400 -1,080 Descending Southern California TRACON
04:43PM 33.1333 -117.2000 239° Southwest 124 143 1,400 -840 Descending Southern California TRACON
04:44PM 33.1333 -117.2500 270° West 118 136 800 -600 Descending Southern California TRACON